Time;durP1;ratioP1;P1;durP2;ratioP2;P2;SDS_P1;SDS_P2;PMS_P1;PMS_P2;Temp;Humidity;BMP_temperature;BMP_pressure;BME280_temperature;BME280_humidity;BME280_pressure;Samples;Min_cycle;Max_cycle;Signal;HPM_P1;HPM_P2
2022/05/05 00:01:51;;;;;;;0.00;0.00;;;;;;;;;;5029866;28;20374;-56
2022/05/05 00:04:18;;;;;;;0.00;0.00;;;;;;;;;;5029601;28;20029;-56
2022/05/05 00:06:43;;;;;;;1.20;1.20;;;;;;;;;;5030697;28;20017;-55
2022/05/05 00:09:08;;;;;;;0.28;0.28;;;;;;;;;;5029363;28;20032;-57
2022/05/05 00:14:24;;;;;;;0.00;0.00;;;;;;;;;;5033555;28;20064;-56
2022/05/05 00:16:49;;;;;;;0.08;0.03;;;;;;;;;;5029059;28;20032;-57
2022/05/05 00:19:14;;;;;;;0.00;0.00;;;;;;;;;;5029706;28;20030;-58
2022/05/05 00:21:40;;;;;;;0.00;0.00;;;;;;;;;;5028737;28;20474;-57
2022/05/05 00:24:06;;;;;;;1.13;1.02;;;;;;;;;;5030708;28;20029;-57
2022/05/05 00:26:31;;;;;;;0.00;0.00;;;;;;;;;;5030826;28;20209;-57
2022/05/05 00:28:56;;;;;;;7.43;7.05;;;;;;;;;;5028941;28;20014;-58
2022/05/05 00:31:21;;;;;;;0.00;0.00;;;;;;;;;;5029406;28;20013;-55
2022/05/05 00:33:47;;;;;;;0.00;0.00;;;;;;;;;;5028612;28;20280;-58
2022/05/05 00:36:12;;;;;;;0.57;0.57;;;;;;;;;;5030659;28;20084;-58
2022/05/05 00:38:37;;;;;;;0.38;0.38;;;;;;;;;;5029171;28;20049;-58
2022/05/05 00:41:02;;;;;;;0.00;0.00;;;;;;;;;;5030434;28;20025;-56
2022/05/05 00:43:28;;;;;;;0.00;0.00;;;;;;;;;;5030606;28;20017;-55
2022/05/05 00:45:53;;;;;;;0.00;0.00;;;;;;;;;;5029761;28;20029;-56
2022/05/05 00:48:23;;;;;;;0.00;0.00;;;;;;;;;;5028598;28;20438;-57
2022/05/05 00:50:48;;;;;;;0.00;0.00;;;;;;;;;;5029465;28;20022;-57
2022/05/05 00:53:14;;;;;;;0.00;0.00;;;;;;;;;;5030684;28;20033;-57
2022/05/05 00:55:39;;;;;;;0.00;0.00;;;;;;;;;;5032779;28;20020;-57
2022/05/05 00:58:05;;;;;;;0.00;0.00;;;;;;;;;;5030738;28;20021;-55
2022/05/05 01:00:31;;;;;;;0.00;0.00;;;;;;;;;;5030523;28;20022;-56
2022/05/05 01:02:58;;;;;;;0.70;0.70;;;;;;;;;;5030485;28;20112;-57
2022/05/05 01:05:24;;;;;;;0.00;0.00;;;;;;;;;;5031953;28;20084;-58
2022/05/05 01:07:49;;;;;;;0.38;0.38;;;;;;;;;;5028789;28;20108;-58
2022/05/05 01:10:15;;;;;;;3.40;1.17;;;;;;;;;;5030498;28;20117;-56
2022/05/05 01:12:40;;;;;;;0.25;0.25;;;;;;;;;;5029263;28;20509;-58
2022/05/05 01:15:05;;;;;;;0.00;0.00;;;;;;;;;;5028789;28;20014;-57
2022/05/05 01:17:31;;;;;;;0.00;0.00;;;;;;;;;;5030737;28;20390;-57
2022/05/05 01:19:56;;;;;;;0.00;0.00;;;;;;;;;;5029030;28;20399;-58
2022/05/05 01:22:22;;;;;;;0.00;0.00;;;;;;;;;;5031593;28;20375;-56
2022/05/05 01:30:15;;;;;;;0.17;0.17;;;;;;;;;;5030528;28;20048;-58
2022/05/05 01:32:40;;;;;;;0.00;0.00;;;;;;;;;;5019054;28;20042;-57
2022/05/05 01:35:06;;;;;;;0.00;0.00;;;;;;;;;;5010469;28;20037;-56
2022/05/05 01:37:31;;;;;;;0.00;0.00;;;;;;;;;;5010813;28;20026;-58
2022/05/05 01:39:57;;;;;;;0.00;0.00;;;;;;;;;;5006576;28;20108;-58
2022/05/05 01:42:22;;;;;;;0.00;0.00;;;;;;;;;;5010015;28;20157;-55
2022/05/05 01:44:47;;;;;;;0.00;0.00;;;;;;;;;;5011302;28;20357;-57
2022/05/05 01:47:12;;;;;;;0.20;0.20;;;;;;;;;;5009030;28;20386;-56
2022/05/05 01:49:37;;;;;;;0.60;0.60;;;;;;;;;;5009558;28;20025;-55
2022/05/05 01:52:07;;;;;;;0.00;0.00;;;;;;;;;;5009055;28;20041;-56
2022/05/05 01:54:32;;;;;;;0.00;0.00;;;;;;;;;;5006067;28;20030;-56
2022/05/05 01:56:58;;;;;;;0.00;0.00;;;;;;;;;;5007702;28;20030;-57
2022/05/05 01:59:23;;;;;;;0.00;0.00;;;;;;;;;;5012734;28;20105;-56
2022/05/05 02:01:48;;;;;;;0.75;0.75;;;;;;;;;;5011451;28;20029;-57
2022/05/05 02:04:13;;;;;;;0.15;0.15;;;;;;;;;;5011143;28;20037;-58
2022/05/05 02:06:39;;;;;;;0.35;0.35;;;;;;;;;;5012731;28;20083;-57
2022/05/05 02:09:04;;;;;;;0.88;0.75;;;;;;;;;;5011825;28;20018;-58
2022/05/05 02:11:29;;;;;;;1.13;1.10;;;;;;;;;;5005768;28;20045;-55
2022/05/05 02:13:57;;;;;;;0.45;0.45;;;;;;;;;;5012401;28;20022;-57
2022/05/05 02:16:22;;;;;;;0.08;0.08;;;;;;;;;;5008678;28;20034;-59
2022/05/05 02:18:47;;;;;;;0.00;0.00;;;;;;;;;;5008776;28;20352;-58
2022/05/05 02:21:13;;;;;;;0.43;0.43;;;;;;;;;;5010781;28;20033;-57
2022/05/05 02:23:38;;;;;;;0.00;0.00;;;;;;;;;;5011148;28;20038;-58
2022/05/05 02:26:04;;;;;;;0.00;0.00;;;;;;;;;;5007928;28;20028;-59
2022/05/05 02:28:30;;;;;;;0.00;0.00;;;;;;;;;;5009827;28;20026;-58
2022/05/05 02:30:55;;;;;;;0.00;0.00;;;;;;;;;;5011589;28;20034;-57
2022/05/05 02:33:21;;;;;;;0.00;0.00;;;;;;;;;;5018834;28;20041;-57
2022/05/05 02:38:42;;;;;;;0.00;0.00;;;;;;;;;;5017073;28;20430;-56
2022/05/05 02:38:43;;;;;;;2.80;2.60;;;;;;;;;;5022873;28;20466;-56
2022/05/05 02:41:08;;;;;;;4.03;1.58;;;;;;;;;;5018926;28;20439;-59
2022/05/05 02:43:34;;;;;;;1.98;1.65;;;;;;;;;;5017307;28;20190;-57
2022/05/05 02:45:59;;;;;;;1.08;1.08;;;;;;;;;;5015487;28;20026;-58
2022/05/05 02:48:24;;;;;;;0.15;0.15;;;;;;;;;;5022133;28;20364;-57
2022/05/05 02:50:50;;;;;;;0.43;0.43;;;;;;;;;;5020378;28;20038;-58
2022/05/05 02:55:59;;;;;;;0.20;0.20;;;;;;;;;;5017311;28;20032;-57
2022/05/05 02:58:27;;;;;;;1.95;1.85;;;;;;;;;;5021933;28;20104;-58
2022/05/05 03:00:52;;;;;;;2.05;1.92;;;;;;;;;;5017801;28;20026;-56
2022/05/05 03:03:17;;;;;;;3.15;2.90;;;;;;;;;;5018067;28;20025;-56
2022/05/05 03:05:43;;;;;;;2.50;2.40;;;;;;;;;;5021199;28;20021;-58
2022/05/05 03:08:08;;;;;;;3.83;1.35;;;;;;;;;;5016694;28;20106;-59
2022/05/05 03:10:33;;;;;;;0.00;0.00;;;;;;;;;;5016819;28;20013;-59
2022/05/05 03:12:58;;;;;;;0.08;0.08;;;;;;;;;;5018577;28;20202;-57
2022/05/05 03:15:24;;;;;;;8.27;2.67;;;;;;;;;;5010318;28;20029;-58
2022/05/05 03:17:50;;;;;;;1.65;1.23;;;;;;;;;;5019848;28;20116;-59
2022/05/05 03:20:15;;;;;;;0.00;0.00;;;;;;;;;;5018245;28;20021;-58
2022/05/05 03:22:40;;;;;;;0.00;0.00;;;;;;;;;;5019485;28;20031;-56
2022/05/05 03:25:06;;;;;;;0.00;0.00;;;;;;;;;;5015275;28;20072;-58
2022/05/05 03:27:31;;;;;;;1.65;0.65;;;;;;;;;;5023546;28;20454;-57
2022/05/05 03:29:56;;;;;;;0.20;0.20;;;;;;;;;;5021469;28;20401;-55
2022/05/05 03:32:22;;;;;;;0.00;0.00;;;;;;;;;;5019170;28;20068;-56
2022/05/05 03:34:47;;;;;;;0.00;0.00;;;;;;;;;;5016073;28;20030;-57
2022/05/05 03:37:12;;;;;;;1.85;1.75;;;;;;;;;;5024682;28;20037;-56
2022/05/05 03:39:37;;;;;;;1.85;0.75;;;;;;;;;;5017493;28;20026;-57
2022/05/05 03:42:03;;;;;;;3.63;3.00;;;;;;;;;;5015623;28;20025;-57
2022/05/05 03:44:28;;;;;;;0.00;0.00;;;;;;;;;;5024009;28;20147;-55
2022/05/05 03:46:53;;;;;;;0.00;0.00;;;;;;;;;;5020986;28;20453;-57
2022/05/05 03:49:19;;;;;;;0.57;0.57;;;;;;;;;;5020270;28;20029;-57
2022/05/05 03:51:44;;;;;;;0.00;0.00;;;;;;;;;;5018826;28;20021;-57
2022/05/05 03:54:10;;;;;;;0.70;0.70;;;;;;;;;;5013883;28;20406;-57
2022/05/05 03:56:35;;;;;;;0.00;0.00;;;;;;;;;;5021951;28;20021;-57
2022/05/05 03:59:01;;;;;;;0.00;0.00;;;;;;;;;;5017826;28;20552;-58
2022/05/05 04:01:27;;;;;;;0.00;0.00;;;;;;;;;;5017358;28;20025;-58
2022/05/05 04:03:52;;;;;;;0.00;0.00;;;;;;;;;;5019924;28;20032;-58
2022/05/05 04:06:19;;;;;;;0.93;0.70;;;;;;;;;;5018198;28;20055;-57
2022/05/05 04:08:45;;;;;;;0.00;0.00;;;;;;;;;;5000823;28;20028;-58
2022/05/05 04:11:10;;;;;;;0.68;0.52;;;;;;;;;;5014295;28;20025;-58
2022/05/05 04:13:36;;;;;;;0.00;0.00;;;;;;;;;;5018145;28;20050;-58
2022/05/05 04:16:01;;;;;;;0.00;0.00;;;;;;;;;;5021389;28;20026;-58
2022/05/05 04:18:27;;;;;;;0.00;0.00;;;;;;;;;;5017643;28;20100;-57
2022/05/05 04:20:52;;;;;;;0.00;0.00;;;;;;;;;;5015386;28;20120;-58
2022/05/05 04:23:17;;;;;;;0.00;0.00;;;;;;;;;;5018558;28;20080;-59
2022/05/05 04:25:43;;;;;;;0.00;0.00;;;;;;;;;;5018214;28;20108;-58
2022/05/05 04:28:09;;;;;;;0.00;0.00;;;;;;;;;;5020877;28;20017;-57
2022/05/05 04:30:35;;;;;;;0.00;0.00;;;;;;;;;;5018373;28;20398;-57
2022/05/05 04:33:00;;;;;;;0.00;0.00;;;;;;;;;;5027602;28;20056;-56
2022/05/05 04:35:25;;;;;;;0.90;0.90;;;;;;;;;;5031829;28;20085;-58
2022/05/05 04:37:50;;;;;;;0.00;0.00;;;;;;;;;;5031851;28;20026;-57
2022/05/05 04:40:16;;;;;;;0.00;0.00;;;;;;;;;;5032414;28;20025;-57
2022/05/05 04:42:41;;;;;;;4.40;4.03;;;;;;;;;;5032393;28;20025;-58
2022/05/05 04:45:06;;;;;;;0.57;0.57;;;;;;;;;;5032390;28;20037;-58
2022/05/05 04:47:32;;;;;;;0.00;0.00;;;;;;;;;;5031713;28;20458;-58
2022/05/05 04:49:57;;;;;;;0.00;0.00;;;;;;;;;;5029944;28;20021;-56
2022/05/05 04:52:23;;;;;;;0.00;0.00;;;;;;;;;;5030079;28;20097;-58
2022/05/05 04:54:49;;;;;;;0.00;0.00;;;;;;;;;;5030292;28;20486;-56
2022/05/05 04:57:14;;;;;;;0.00;0.00;;;;;;;;;;5028137;28;20029;-57
2022/05/05 04:59:39;;;;;;;0.00;0.00;;;;;;;;;;5028907;28;20029;-57
2022/05/05 05:02:04;;;;;;;0.00;0.00;;;;;;;;;;5028901;28;20029;-55
2022/05/05 05:04:30;;;;;;;0.00;0.00;;;;;;;;;;5028403;28;20509;-59
2022/05/05 05:06:55;;;;;;;0.00;0.00;;;;;;;;;;5028723;28;20029;-56
2022/05/05 05:09:20;;;;;;;0.00;0.00;;;;;;;;;;5019304;28;20076;-56
2022/05/05 05:11:45;;;;;;;0.00;0.00;;;;;;;;;;5028723;28;20330;-58
2022/05/05 05:14:11;;;;;;;0.00;0.00;;;;;;;;;;5029249;28;20078;-58
2022/05/05 05:16:36;;;;;;;0.00;0.00;;;;;;;;;;5029643;28;20030;-56
2022/05/05 05:19:02;;;;;;;0.00;0.00;;;;;;;;;;5026032;28;20033;-59
2022/05/05 05:21:27;;;;;;;0.00;0.00;;;;;;;;;;5026457;28;20030;-57
2022/05/05 05:23:52;;;;;;;0.00;0.00;;;;;;;;;;5027695;28;20378;-58
2022/05/05 05:26:17;;;;;;;0.00;0.00;;;;;;;;;;5010718;28;20052;-55
2022/05/05 05:28:43;;;;;;;0.10;0.10;;;;;;;;;;5030299;28;20017;-57
2022/05/05 05:31:08;;;;;;;0.13;0.13;;;;;;;;;;5030043;28;20013;-56
2022/05/05 05:33:34;;;;;;;0.00;0.00;;;;;;;;;;5033153;28;20056;-57
2022/05/05 05:35:59;;;;;;;0.00;0.00;;;;;;;;;;5032469;28;20025;-54
2022/05/05 05:38:24;;;;;;;0.00;0.00;;;;;;;;;;5032337;28;20061;-56
2022/05/05 05:40:49;;;;;;;0.00;0.00;;;;;;;;;;5034726;28;20045;-59
2022/05/05 05:43:15;;;;;;;0.80;0.80;;;;;;;;;;5033378;28;20025;-56
2022/05/05 05:45:40;;;;;;;0.63;0.63;;;;;;;;;;5031961;28;20041;-56
2022/05/05 05:48:06;;;;;;;0.28;0.28;;;;;;;;;;5033001;28;20148;-54
2022/05/05 05:50:31;;;;;;;0.00;0.00;;;;;;;;;;5032980;28;20025;-56
2022/05/05 05:52:57;;;;;;;0.00;0.00;;;;;;;;;;5033319;28;20033;-56
2022/05/05 05:55:22;;;;;;;0.00;0.00;;;;;;;;;;5033795;28;20123;-57
2022/05/05 05:57:47;;;;;;;0.13;0.13;;;;;;;;;;5033569;28;20386;-58
2022/05/05 06:00:13;;;;;;;0.85;0.85;;;;;;;;;;5032048;28;20032;-53
2022/05/05 06:05:22;;;;;;;0.47;0.25;;;;;;;;;;5032096;28;20112;-54
2022/05/05 06:07:48;;;;;;;0.00;0.00;;;;;;;;;;5033343;28;20116;-57
2022/05/05 06:10:13;;;;;;;0.00;0.00;;;;;;;;;;5031957;28;20071;-55
2022/05/05 06:12:38;;;;;;;0.00;0.00;;;;;;;;;;5031784;28;20040;-55
2022/05/05 06:15:04;;;;;;;4.15;3.83;;;;;;;;;;5032102;28;20087;-52
2022/05/05 06:17:29;;;;;;;0.47;0.45;;;;;;;;;;5032596;28;20504;-57
2022/05/05 06:19:54;;;;;;;2.13;2.03;;;;;;;;;;5029191;28;20520;-53
2022/05/05 06:22:20;;;;;;;3.88;3.58;;;;;;;;;;5031275;28;20021;-58
2022/05/05 06:24:45;;;;;;;11.15;2.95;;;;;;;;;;5030975;28;20021;-57
2022/05/05 06:27:10;;;;;;;0.00;0.00;;;;;;;;;;5031203;28;20021;-57
2022/05/05 06:29:35;;;;;;;1.38;0.98;;;;;;;;;;5031624;28;20064;-56
2022/05/05 06:32:00;;;;;;;4.38;2.13;;;;;;;;;;5031328;28;20029;-56
2022/05/05 06:34:26;;;;;;;2.88;2.67;;;;;;;;;;5031484;28;20025;-54
2022/05/05 06:36:51;;;;;;;0.00;0.00;;;;;;;;;;5031704;28;20037;-56
2022/05/05 06:39:16;;;;;;;0.00;0.00;;;;;;;;;;5030499;28;20040;-59
2022/05/05 06:41:41;;;;;;;0.00;0.00;;;;;;;;;;5030033;28;20026;-59
2022/05/05 06:44:06;;;;;;;0.00;0.00;;;;;;;;;;5028759;28;20034;-57
2022/05/05 06:46:32;;;;;;;0.00;0.00;;;;;;;;;;5028683;28;20025;-58
2022/05/05 06:48:57;;;;;;;0.00;0.00;;;;;;;;;;5028934;28;20017;-58
2022/05/05 06:51:22;;;;;;;0.00;0.00;;;;;;;;;;5030113;28;20056;-59
2022/05/05 06:53:47;;;;;;;0.00;0.00;;;;;;;;;;5030208;28;20044;-58
2022/05/05 06:56:13;;;;;;;0.40;0.40;;;;;;;;;;5029403;28;20445;-58
2022/05/05 06:58:38;;;;;;;0.00;0.00;;;;;;;;;;5011961;28;20028;-58
2022/05/05 07:03:47;;;;;;;0.00;0.00;;;;;;;;;;5028239;28;20060;-57
2022/05/05 07:06:12;;;;;;;0.17;0.17;;;;;;;;;;5027975;28;20060;-58
2022/05/05 07:11:21;;;;;;;2.50;1.45;;;;;;;;;;5029550;28;20076;-58
2022/05/05 07:13:46;;;;;;;0.35;0.15;;;;;;;;;;5027099;28;20458;-58
2022/05/05 07:16:12;;;;;;;0.70;0.70;;;;;;;;;;5026182;28;20025;-59
2022/05/05 07:18:37;;;;;;;0.52;0.50;;;;;;;;;;5030349;28;20084;-59
2022/05/05 07:21:03;;;;;;;0.00;0.00;;;;;;;;;;5029003;28;20383;-59
2022/05/05 07:23:28;;;;;;;0.00;0.00;;;;;;;;;;5030529;28;20032;-57
2022/05/05 07:25:53;;;;;;;0.00;0.00;;;;;;;;;;5030518;28;20116;-56
2022/05/05 07:28:18;;;;;;;0.10;0.10;;;;;;;;;;5032486;28;20107;-58
2022/05/05 07:30:44;;;;;;;0.00;0.00;;;;;;;;;;5028530;28;20064;-57
2022/05/05 07:33:10;;;;;;;0.57;0.57;;;;;;;;;;5013250;28;20048;-59
2022/05/05 07:35:38;;;;;;;0.47;0.47;;;;;;;;;;5010179;28;20013;-59
2022/05/05 07:38:03;;;;;;;0.00;0.00;;;;;;;;;;5012419;28;20040;-59
2022/05/05 07:40:28;;;;;;;0.00;0.00;;;;;;;;;;5011242;28;20017;-59
2022/05/05 07:42:53;;;;;;;1.58;1.48;;;;;;;;;;5009437;28;20028;-58
2022/05/05 07:45:19;;;;;;;1.08;1.08;;;;;;;;;;5012724;28;20034;-59
2022/05/05 07:47:45;;;;;;;0.10;0.10;;;;;;;;;;5010116;28;20077;-59
2022/05/05 07:50:10;;;;;;;1.73;1.73;;;;;;;;;;5004145;28;20026;-59
2022/05/05 07:52:35;;;;;;;0.38;0.38;;;;;;;;;;5010700;28;20067;-59
2022/05/05 07:55:00;;;;;;;0.80;0.80;;;;;;;;;;5011263;28;20018;-58
2022/05/05 07:57:26;;;;;;;0.40;0.40;;;;;;;;;;5010689;28;20079;-57
2022/05/05 07:59:51;;;;;;;3.10;2.80;;;;;;;;;;5009834;28;20033;-58
2022/05/05 08:02:16;;;;;;;4.63;2.60;;;;;;;;;;5012339;28;20478;-54
2022/05/05 08:04:42;;;;;;;0.00;0.00;;;;;;;;;;5008978;28;20402;-52
2022/05/05 08:07:08;;;;;;;0.00;0.00;;;;;;;;;;5009873;28;20021;-60
2022/05/05 08:09:33;;;;;;;0.03;0.03;;;;;;;;;;5008235;28;20026;-59
2022/05/05 08:12:02;;;;;;;1.30;1.20;;;;;;;;;;5006147;28;20100;-58
2022/05/05 08:14:27;;;;;;;0.22;0.15;;;;;;;;;;5007006;28;20092;-59
2022/05/05 08:16:52;;;;;;;0.00;0.00;;;;;;;;;;5008570;28;20586;-59
2022/05/05 08:19:18;;;;;;;0.00;0.00;;;;;;;;;;5007452;28;20117;-59
2022/05/05 08:21:43;;;;;;;0.10;0.10;;;;;;;;;;5009991;28;20037;-62
2022/05/05 08:29:56;;;;;;;0.00;0.00;;;;;;;;;;4928283;29;20031;-62
2022/05/05 08:32:21;;;;;;;0.00;0.00;;;;;;;;;;4999820;28;20091;-61
2022/05/05 08:34:46;;;;;;;0.13;0.13;;;;;;;;;;5026504;28;20386;-61
2022/05/05 08:37:11;;;;;;;7.57;4.03;;;;;;;;;;5026270;28;20037;-60
2022/05/05 08:39:38;;;;;;;1.45;1.35;;;;;;;;;;5025869;28;20025;-60
2022/05/05 08:42:04;;;;;;;2.78;2.63;;;;;;;;;;5025707;28;20087;-60
2022/05/05 08:44:29;;;;;;;0.00;0.00;;;;;;;;;;5027002;28;20025;-60
2022/05/05 08:46:55;;;;;;;0.00;0.00;;;;;;;;;;5026276;28;20073;-59
2022/05/05 08:49:23;;;;;;;3.53;0.70;;;;;;;;;;5026365;28;20076;-60
2022/05/05 08:51:50;;;;;;;3.60;3.33;;;;;;;;;;5026339;28;20380;-60
2022/05/05 08:54:18;;;;;;;1.20;1.08;;;;;;;;;;5027484;28;20025;-61
2022/05/05 08:56:54;;;;;;;0.38;0.38;;;;;;;;;;5026375;28;20052;-61
2022/05/05 08:59:22;;;;;;;1.35;1.25;;;;;;;;;;5025169;28;20109;-59
2022/05/05 09:01:47;;;;;;;0.00;0.00;;;;;;;;;;5026255;28;20037;-60
2022/05/05 09:04:12;;;;;;;0.00;0.00;;;;;;;;;;5023921;28;20138;-60
2022/05/05 09:06:46;;;;;;;0.75;0.75;;;;;;;;;;5030412;28;20064;-60
2022/05/05 09:09:27;;;;;;;0.47;0.47;;;;;;;;;;5031072;28;20462;-60
2022/05/05 09:12:04;;;;;;;0.00;0.00;;;;;;;;;;5029153;28;20491;-60
2022/05/05 09:14:40;;;;;;;0.00;0.00;;;;;;;;;;5027161;28;20018;-60
2022/05/05 09:17:06;;;;;;;0.00;0.00;;;;;;;;;;5030133;28;20021;-59
2022/05/05 09:19:36;;;;;;;0.00;0.00;;;;;;;;;;5032039;28;20030;-59
2022/05/05 09:22:08;;;;;;;3.15;2.13;;;;;;;;;;5031064;28;20014;-60
2022/05/05 09:24:36;;;;;;;0.00;0.00;;;;;;;;;;5031602;28;20033;-60
2022/05/05 09:27:21;;;;;;;1.98;1.88;;;;;;;;;;5031303;28;20112;-61
2022/05/05 09:29:56;;;;;;;0.55;0.55;;;;;;;;;;5017833;28;20040;-60
2022/05/05 09:32:21;;;;;;;0.00;0.00;;;;;;;;;;5030785;28;20172;-59
2022/05/05 09:34:46;;;;;;;0.00;0.00;;;;;;;;;;5030675;28;20108;-59
2022/05/05 09:37:20;;;;;;;0.00;0.00;;;;;;;;;;5027855;28;20056;-60
2022/05/05 09:39:46;;;;;;;1.75;1.60;;;;;;;;;;5029594;28;20056;-60
2022/05/05 09:42:11;;;;;;;0.00;0.00;;;;;;;;;;5029355;28;20045;-59
2022/05/05 09:44:45;;;;;;;0.40;0.40;;;;;;;;;;5029563;28;20560;-60
2022/05/05 09:47:14;;;;;;;0.15;0.15;;;;;;;;;;5028701;28;20045;-60
2022/05/05 09:49:39;;;;;;;0.00;0.00;;;;;;;;;;5030372;28;20021;-59
2022/05/05 09:57:41;;;;;;;0.00;0.00;;;;;;;;;;5031072;28;20521;-59
2022/05/05 10:00:23;;;;;;;0.00;0.00;;;;;;;;;;5030854;28;20127;-59
2022/05/05 10:05:32;;;;;;;2.97;2.63;;;;;;;;;;5030203;28;20043;-59
2022/05/05 10:07:57;;;;;;;1.83;1.77;;;;;;;;;;5029956;28;20429;-59
2022/05/05 10:10:23;;;;;;;1.65;1.55;;;;;;;;;;5030708;28;20451;-59
2022/05/05 10:12:49;;;;;;;2.08;1.98;;;;;;;;;;5030263;28;20493;-59
2022/05/05 10:15:14;;;;;;;0.30;0.30;;;;;;;;;;5030209;28;20517;-60
2022/05/05 10:17:39;;;;;;;1.55;1.27;;;;;;;;;;5030355;28;20029;-59
2022/05/05 10:20:06;;;;;;;0.20;0.20;;;;;;;;;;5030329;28;20036;-59
2022/05/05 10:22:40;;;;;;;1.30;1.20;;;;;;;;;;5027921;28;20013;-59
2022/05/05 10:25:09;;;;;;;1.30;1.30;;;;;;;;;;5028277;28;20072;-59
2022/05/05 10:27:35;;;;;;;;;;;;;;;;;;5030924;28;20108;-58
2022/05/05 10:30:00;;;;;;;2.10;2.00;;;;;;;;;;5030487;28;19995;-59
2022/05/05 10:32:26;;;;;;;0.22;0.22;;;;;;;;;;5030072;28;20050;-60
2022/05/05 10:34:53;;;;;;;0.50;0.50;;;;;;;;;;5029313;28;20025;-59
2022/05/05 10:37:22;;;;;;;0.45;0.45;;;;;;;;;;5028433;28;20025;-59
2022/05/05 10:39:47;;;;;;;;;;;;;;;;;;5029302;28;20068;-60
2022/05/05 10:42:16;;;;;;;1.90;0.60;;;;;;;;;;5028489;28;19944;-59
2022/05/05 10:45:00;;;;;;;0.30;0.30;;;;;;;;;;5028463;28;20268;-60
2022/05/05 10:47:25;;;;;;;1.85;0.90;;;;;;;;;;5029780;28;20454;-60
2022/05/05 10:49:53;;;;;;;7.72;2.78;;;;;;;;;;5030519;28;20032;-59
2022/05/05 10:52:21;;;;;;;6.47;2.83;;;;;;;;;;5028469;28;20017;-59
2022/05/05 10:54:47;;;;;;;3.65;1.73;;;;;;;;;;5030330;28;20056;-59
2022/05/05 10:57:27;;;;;;;1.88;0.77;;;;;;;;;;5029514;28;20057;-59
2022/05/05 11:00:04;;;;;;;1.55;0.63;;;;;;;;;;5030018;28;20041;-59
2022/05/05 11:02:30;;;;;;;1.45;1.35;;;;;;;;;;5028870;28;20029;-59
2022/05/05 11:05:15;;;;;;;0.65;0.65;;;;;;;;;;5025974;28;20052;-59
2022/05/05 11:07:40;;;;;;;1.75;1.65;;;;;;;;;;5026367;28;20099;-59
2022/05/05 11:10:06;;;;;;;2.38;2.13;;;;;;;;;;5028564;28;20041;-59
2022/05/05 11:12:33;;;;;;;3.15;2.92;;;;;;;;;;5028248;28;20748;-59
2022/05/05 11:23:28;;;;;;;0.00;0.00;;;;;;;;;;5028227;28;20028;-59
2022/05/05 11:25:54;;;;;;;0.75;0.75;;;;;;;;;;5028698;28;20043;-59
2022/05/05 11:28:19;;;;;;;1.58;1.38;;;;;;;;;;5010628;28;20720;-60
2022/05/05 11:30:45;;;;;;;24.67;2.80;;;;;;;;;;5010774;28;20026;-59
2022/05/05 11:33:11;;;;;;;0.00;0.00;;;;;;;;;;5010545;28;20069;-59
2022/05/05 11:35:36;;;;;;;7.95;4.82;;;;;;;;;;5028013;28;20013;-59
2022/05/05 11:38:01;;;;;;;0.00;0.00;;;;;;;;;;5027665;28;20486;-62
2022/05/05 11:40:33;;;;;;;1.08;0.95;;;;;;;;;;5029341;28;20021;-58
2022/05/05 11:45:43;;;;;;;0.90;0.90;;;;;;;;;;5029720;28;20528;-57
2022/05/05 11:48:15;;;;;;;6.82;1.55;;;;;;;;;;5028626;28;20021;-59
2022/05/05 11:50:44;;;;;;;0.45;0.45;;;;;;;;;;5028242;28;20076;-57
2022/05/05 11:53:17;;;;;;;5.25;4.80;;;;;;;;;;5027738;28;20043;-59
2022/05/05 11:55:44;;;;;;;0.57;0.57;;;;;;;;;;5027944;28;20466;-59
2022/05/05 12:01:36;;;;;;;0.32;0.32;;;;;;;;;;5028095;28;20426;-59
2022/05/05 12:03:58;;;;;;;3.15;1.38;;;;;;;;;;5027999;28;20489;-62
2022/05/05 12:06:24;;;;;;;1.85;1.55;;;;;;;;;;5028228;28;20532;-59
2022/05/05 12:08:49;;;;;;;0.88;0.88;;;;;;;;;;5027548;28;20049;-58
2022/05/05 12:11:14;;;;;;;0.00;0.00;;;;;;;;;;5027124;28;20056;-59
2022/05/05 12:13:40;;;;;;;1.17;1.15;;;;;;;;;;5026656;28;20407;-60
2022/05/05 12:16:05;;;;;;;0.90;0.90;;;;;;;;;;5025580;28;20076;-59
2022/05/05 12:18:31;;;;;;;2.05;1.00;;;;;;;;;;5024962;28;20076;-58
2022/05/05 12:20:57;;;;;;;0.00;0.00;;;;;;;;;;5025296;28;20029;-59
2022/05/05 12:23:24;;;;;;;0.22;0.22;;;;;;;;;;5028360;28;20377;-59
2022/05/05 12:25:49;;;;;;;0.00;0.00;;;;;;;;;;5029209;28;20101;-58
2022/05/05 12:28:14;;;;;;;0.52;0.40;;;;;;;;;;5026609;28;20546;-58
2022/05/05 12:30:41;;;;;;;0.08;0.08;;;;;;;;;;5027535;28;20374;-58
2022/05/05 12:33:08;;;;;;;0.00;0.00;;;;;;;;;;5027363;28;20045;-58
2022/05/05 12:35:35;;;;;;;0.98;0.98;;;;;;;;;;5026275;28;20037;-61
2022/05/05 12:38:01;;;;;;;1.40;1.25;;;;;;;;;;5027175;28;20052;-61
2022/05/05 12:40:26;;;;;;;0.35;0.35;;;;;;;;;;5026055;28;20462;-62
2022/05/05 12:42:58;;;;;;;0.05;0.05;;;;;;;;;;5024118;28;20115;-63
2022/05/05 12:45:29;;;;;;;0.20;0.17;;;;;;;;;;5026842;28;20026;-62
2022/05/05 12:47:58;;;;;;;0.38;0.38;;;;;;;;;;5025102;28;20167;-62
2022/05/05 12:50:29;;;;;;;0.00;0.00;;;;;;;;;;5023181;28;20025;-62
2022/05/05 13:01:06;;;;;;;6.07;2.72;;;;;;;;;;5022567;28;20032;-57
2022/05/05 13:03:31;;;;;;;0.00;0.00;;;;;;;;;;5028113;28;20022;-58
2022/05/05 13:05:57;;;;;;;1.35;1.35;;;;;;;;;;5023464;28;20582;-58
2022/05/05 13:08:23;;;;;;;0.00;0.00;;;;;;;;;;5025328;28;20297;-58
2022/05/05 13:10:48;;;;;;;0.00;0.00;;;;;;;;;;5007167;28;20052;-58
2022/05/05 13:13:14;;;;;;;0.08;0.08;;;;;;;;;;5026334;28;20021;-57
2022/05/05 13:15:40;;;;;;;0.55;0.47;;;;;;;;;;5027425;28;20029;-49
2022/05/05 13:18:05;;;;;;;2.13;1.98;;;;;;;;;;5025870;28;20025;-53
2022/05/05 13:20:31;;;;;;;0.65;0.20;;;;;;;;;;5027751;28;20032;-54
2022/05/05 13:22:56;;;;;;;0.00;0.00;;;;;;;;;;5027279;28;20862;-52
2022/05/05 13:25:21;;;;;;;0.00;0.00;;;;;;;;;;5026922;28;20593;-51
2022/05/05 13:27:46;;;;;;;0.00;0.00;;;;;;;;;;5026458;28;20066;-53
2022/05/05 13:30:12;;;;;;;0.20;0.20;;;;;;;;;;5026851;28;20021;-53
2022/05/05 13:32:37;;;;;;;0.00;0.00;;;;;;;;;;5026742;28;20052;-53
2022/05/05 13:35:03;;;;;;;0.30;0.20;;;;;;;;;;5026861;28;20083;-54
2022/05/05 13:37:28;;;;;;;0.00;0.00;;;;;;;;;;5026529;28;20108;-55
2022/05/05 13:39:53;;;;;;;0.00;0.00;;;;;;;;;;5025806;28;20573;-52
2022/05/05 13:42:18;;;;;;;0.52;0.52;;;;;;;;;;5026308;28;20162;-51
2022/05/05 13:44:44;;;;;;;1.30;1.27;;;;;;;;;;5025433;28;20510;-53
2022/05/05 13:47:12;;;;;;;0.28;0.28;;;;;;;;;;5026836;28;20026;-51
2022/05/05 13:49:37;;;;;;;3.38;2.10;;;;;;;;;;5027320;28;20823;-54
2022/05/05 13:52:02;;;;;;;0.00;0.00;;;;;;;;;;5027827;28;20030;-54
2022/05/05 13:54:27;;;;;;;0.40;0.40;;;;;;;;;;5030559;28;20017;-52
2022/05/05 13:56:53;;;;;;;0.00;0.00;;;;;;;;;;5029329;28;20041;-54
2022/05/05 13:59:18;;;;;;;0.28;0.28;;;;;;;;;;5030602;28;20029;-50
2022/05/05 14:01:45;;;;;;;0.70;0.70;;;;;;;;;;5032706;28;20112;-54
2022/05/05 14:04:10;;;;;;;0.30;0.30;;;;;;;;;;5031102;28;20029;-51
2022/05/05 14:06:36;;;;;;;0.82;0.82;;;;;;;;;;5030257;28;20029;-53
2022/05/05 14:14:29;;;;;;;1.38;0.25;;;;;;;;;;5027756;28;20157;-49
2022/05/05 14:16:57;;;;;;;0.00;0.00;;;;;;;;;;5030139;28;20521;-52
2022/05/05 14:19:22;;;;;;;3.65;1.50;;;;;;;;;;5030137;28;20044;-54
2022/05/05 14:21:48;;;;;;;0.68;0.68;;;;;;;;;;5030429;28;20025;-53
2022/05/05 14:24:13;;;;;;;1.83;1.30;;;;;;;;;;5028927;28;20029;-55
2022/05/05 14:26:39;;;;;;;0.00;0.00;;;;;;;;;;5030528;28;20030;-56
2022/05/05 14:29:04;;;;;;;0.00;0.00;;;;;;;;;;5030539;28;20108;-55
2022/05/05 14:31:30;;;;;;;0.00;0.00;;;;;;;;;;5029413;28;20386;-57
2022/05/05 14:33:55;;;;;;;0.10;0.10;;;;;;;;;;5029750;28;20030;-57
2022/05/05 14:36:20;;;;;;;5.13;3.45;;;;;;;;;;5029806;28;20029;-56
2022/05/05 14:38:46;;;;;;;0.00;0.00;;;;;;;;;;5030452;28;20026;-57
2022/05/05 14:41:11;;;;;;;0.00;0.00;;;;;;;;;;5030169;28;20032;-57
2022/05/05 14:43:36;;;;;;;0.10;0.10;;;;;;;;;;5030116;28;20084;-57
2022/05/05 14:46:02;;;;;;;4.22;3.10;;;;;;;;;;5030161;28;20447;-57
2022/05/05 14:48:28;;;;;;;0.00;0.00;;;;;;;;;;5029833;28;20439;-58
2022/05/05 14:50:53;;;;;;;0.00;0.00;;;;;;;;;;5030572;28;20049;-58
2022/05/05 14:53:18;;;;;;;0.40;0.40;;;;;;;;;;5027991;28;20017;-58
2022/05/05 14:55:43;;;;;;;0.03;0.03;;;;;;;;;;5028944;28;20028;-58
2022/05/05 14:58:09;;;;;;;0.47;0.47;;;;;;;;;;5028152;28;20105;-58
2022/05/05 15:00:34;;;;;;;0.17;0.17;;;;;;;;;;5028805;28;20033;-56
2022/05/05 15:02:59;;;;;;;0.00;0.00;;;;;;;;;;5028384;28;20493;-61
2022/05/05 15:05:24;;;;;;;0.30;0.30;;;;;;;;;;5028822;28;20041;-57
2022/05/05 15:07:50;;;;;;;3.42;0.28;;;;;;;;;;5028218;28;20076;-58
2022/05/05 15:10:15;;;;;;;0.00;0.00;;;;;;;;;;5029734;28;20466;-57
2022/05/05 15:12:40;;;;;;;0.00;0.00;;;;;;;;;;5029915;28;20026;-58
2022/05/05 15:15:06;;;;;;;0.00;0.00;;;;;;;;;;5030013;28;20022;-57
2022/05/05 15:17:31;;;;;;;0.00;0.00;;;;;;;;;;5030267;28;20092;-59
2022/05/05 15:19:57;;;;;;;0.32;0.32;;;;;;;;;;5029724;28;20048;-56
2022/05/05 15:22:22;;;;;;;1.42;1.33;;;;;;;;;;5028533;28;20111;-56
2022/05/05 15:25:05;;;;;;;0.00;0.00;;;;;;;;;;5029782;28;20470;-54
2022/05/05 15:27:31;;;;;;;0.00;0.00;;;;;;;;;;5029425;28;20378;-55
2022/05/05 15:29:56;;;;;;;4.80;1.98;;;;;;;;;;5029554;28;20022;-57
2022/05/05 15:32:24;;;;;;;1.40;1.35;;;;;;;;;;5029138;28;20052;-55
2022/05/05 15:34:49;;;;;;;0.00;0.00;;;;;;;;;;5030117;28;20029;-55
2022/05/05 15:37:14;;;;;;;0.00;0.00;;;;;;;;;;5025978;28;20512;-56
2022/05/05 15:39:40;;;;;;;0.00;0.00;;;;;;;;;;5029366;28;20060;-57